Time;durP1;ratioP1;P1;durP2;ratioP2;P2;SDS_P1;SDS_P2;PMS_P1;PMS_P2;Temp;Humidity;BMP_temperature;BMP_pressure;BME280_temperature;BME280_humidity;BME280_pressure;Samples;Min_cycle;Max_cycle;Signal;HPM_P1;HPM_P2
2023/10/21 00:01:53;;;;;;;5.88;2.40;;;;;;;5.90;88.22;99168.47;5093707;28;20126;-61
2023/10/21 00:04:24;;;;;;;4.30;2.45;;;;;;;5.79;85.88;99181.56;5082659;28;20044;-62
2023/10/21 00:06:54;;;;;;;4.13;1.20;;;;;;;5.65;83.92;99178.34;5093607;28;20120;-62
2023/10/21 00:09:25;;;;;;;3.08;1.10;;;;;;;5.53;82.83;99185.41;5083076;28;20096;-61
2023/10/21 00:11:57;;;;;;;4.70;2.67;;;;;;;5.53;83.87;99190.56;5093565;28;20039;-62
2023/10/21 00:14:27;;;;;;;4.72;1.92;;;;;;;5.48;84.57;99191.53;5082999;28;20047;-62
2023/10/21 00:16:58;;;;;;;6.10;2.70;;;;;;;5.50;84.83;99190.63;5093706;28;20134;-62
2023/10/21 00:19:28;;;;;;;4.63;1.55;;;;;;;5.52;85.36;99180.25;5082838;28;20058;-62
2023/10/21 00:21:58;;;;;;;1.40;0.77;;;;;;;5.50;83.58;99176.81;5094689;28;20369;-62
2023/10/21 00:24:29;;;;;;;0.50;0.50;;;;;;;5.40;81.86;99183.84;5095137;28;20044;-62
2023/10/21 00:27:01;;;;;;;0.60;0.60;;;;;;;5.34;82.85;99183.91;5114642;28;20039;-62
2023/10/21 00:29:34;;;;;;;1.50;0.95;;;;;;;5.34;83.25;99181.31;5082941;28;20459;-61
2023/10/21 00:32:05;;;;;;;1.75;0.80;;;;;;;5.29;82.77;99180.53;5093457;28;20044;-62
2023/10/21 00:34:38;;;;;;;0.70;0.70;;;;;;;5.29;83.15;99175.34;5113918;28;20048;-61
2023/10/21 00:37:09;;;;;;;2.22;1.10;;;;;;;5.33;83.58;99174.44;5093724;28;20070;-61
2023/10/21 00:39:40;;;;;;;3.80;0.90;;;;;;;5.42;83.93;99171.75;5082024;28;20122;-61
2023/10/21 00:42:12;;;;;;;2.20;0.70;;;;;;;5.30;82.92;99146.84;5093552;28;20071;-61
2023/10/21 00:44:42;;;;;;;1.02;0.80;;;;;;;5.35;82.85;99159.75;5093407;28;20044;-62
2023/10/21 00:47:13;;;;;;;2.50;0.80;;;;;;;5.46;84.03;99168.22;5084259;28;20043;-62
2023/10/21 00:49:44;;;;;;;2.30;1.45;;;;;;;5.61;83.88;99168.00;5084764;28;20048;-60
2023/10/21 00:52:15;;;;;;;2.20;0.90;;;;;;;5.73;83.51;99171.31;5075234;28;20043;-61
2023/10/21 00:54:45;;;;;;;1.52;1.08;;;;;;;5.76;82.67;99161.75;5085361;28;20459;-61
2023/10/21 00:57:17;;;;;;;2.97;0.98;;;;;;;5.77;82.21;99173.00;5074466;28;20361;-61
2023/10/21 00:59:49;;;;;;;3.88;1.45;;;;;;;5.74;84.21;99178.19;5085382;28;20036;-63
2023/10/21 01:02:19;;;;;;;2.70;1.20;;;;;;;5.59;85.67;99164.59;5077043;28;20063;-62
2023/10/21 01:04:50;;;;;;;2.45;1.52;;;;;;;5.57;86.79;99168.94;5093321;28;20035;-62
2023/10/21 01:07:20;;;;;;;2.30;1.35;;;;;;;5.52;87.37;99168.16;5081532;28;20056;-61
2023/10/21 01:09:51;;;;;;;3.08;1.25;;;;;;;5.43;87.56;99168.25;5104344;28;20062;-63
2023/10/21 01:12:23;;;;;;;3.80;0.82;;;;;;;5.43;87.22;99178.63;5102732;28;20053;-60
2023/10/21 01:14:54;;;;;;;9.25;1.05;;;;;;;5.54;87.40;99161.22;5092983;28;20466;-62
2023/10/21 01:17:24;;;;;;;3.35;1.10;;;;;;;5.69;87.41;99175.69;5081790;28;20047;-61
2023/10/21 01:19:54;;;;;;;2.47;0.90;;;;;;;5.82;87.48;99171.19;5092739;28;20492;-62
2023/10/21 01:22:25;;;;;;;1.73;1.00;;;;;;;5.92;86.97;99177.94;5102539;28;20047;-61
2023/10/21 01:24:57;;;;;;;0.85;0.60;;;;;;;5.95;85.04;99183.13;5113675;28;20093;-61
2023/10/21 01:27:27;;;;;;;1.23;0.90;;;;;;;5.82;84.82;99187.59;5092055;28;20043;-61
2023/10/21 01:29:57;;;;;;;3.17;1.15;;;;;;;5.69;85.06;99195.56;5091286;28;20040;-62
2023/10/21 01:32:29;;;;;;;1.20;0.80;;;;;;;5.48;84.40;99197.56;5080929;28;20051;-61
2023/10/21 01:34:59;;;;;;;2.47;1.10;;;;;;;5.30;84.74;99200.38;5092787;28;20119;-63
2023/10/21 01:37:30;;;;;;;1.75;0.82;;;;;;;5.12;84.96;99204.91;5077540;28;20073;-62
2023/10/21 01:40:02;;;;;;;1.42;0.98;;;;;;;5.01;84.20;99206.72;5079723;28;20358;-62
2023/10/21 01:42:34;;;;;;;0.73;0.57;;;;;;;4.85;82.94;99205.19;5075062;28;20112;-62
2023/10/21 01:45:05;;;;;;;0.50;0.50;;;;;;;4.87;83.79;99211.22;5088465;28;20035;-61
2023/10/21 01:47:36;;;;;;;0.40;0.40;;;;;;;4.81;83.17;99213.84;5076696;28;20047;-61
2023/10/21 01:50:08;;;;;;;0.50;0.50;;;;;;;4.79;83.24;99215.59;5088224;28;20392;-61
2023/10/21 01:52:39;;;;;;;2.88;0.50;;;;;;;4.25;84.18;99141.94;5079319;28;20054;-62
2023/10/21 01:55:12;;;;;;;0.40;0.40;;;;;;;4.75;85.53;99215.63;5090141;28;20473;-62
2023/10/21 01:57:42;;;;;;;0.73;0.43;;;;;;;4.70;85.53;99222.59;5079610;28;20041;-62
2023/10/21 02:00:18;;;;;;;0.60;0.60;;;;;;;4.64;85.98;99226.94;5081759;28;20048;-62
2023/10/21 02:02:52;;;;;;;0.50;0.50;;;;;;;4.48;85.36;99224.50;5089274;28;20043;-62
2023/10/21 02:05:24;;;;;;;1.20;1.00;;;;;;;4.47;86.41;99224.53;5079049;28;20625;-60
2023/10/21 02:07:54;;;;;;;0.70;0.60;;;;;;;4.42;86.73;99227.16;5089017;28;20127;-62
2023/10/21 02:10:26;;;;;;;0.70;0.70;;;;;;;4.38;87.36;99229.75;5079116;28;20048;-61
2023/10/21 02:12:57;;;;;;;1.20;0.70;;;;;;;4.27;87.52;99228.13;5088351;28;20838;-62
2023/10/21 02:15:27;;;;;;;0.50;0.50;;;;;;;4.14;87.46;99231.66;5078612;28;20477;-61
2023/10/21 02:17:57;;;;;;;0.55;0.55;;;;;;;4.17;87.83;99236.81;5088479;28;20027;-62
2023/10/21 02:20:28;;;;;;;1.20;0.80;;;;;;;4.11;88.28;99236.84;5078797;28;20341;-61
2023/10/21 02:22:58;;;;;;;0.93;0.70;;;;;;;4.05;88.50;99231.72;5088538;28;20062;-61
2023/10/21 02:25:30;;;;;;;1.65;0.70;;;;;;;3.99;89.00;99231.75;5078808;28;20162;-62
2023/10/21 02:28:02;;;;;;;4.10;1.50;;;;;;;3.98;89.43;99230.03;5089047;28;20043;-62
2023/10/21 02:30:32;;;;;;;2.10;1.30;;;;;;;3.92;89.70;99241.28;5077787;28;21878;-63
2023/10/21 02:33:03;;;;;;;1.45;1.00;;;;;;;3.86;89.62;99230.97;5087974;28;20450;-62
2023/10/21 02:35:35;;;;;;;0.63;0.60;;;;;;;3.85;89.75;99239.59;5077386;28;20104;-60
2023/10/21 02:38:05;;;;;;;0.95;0.80;;;;;;;3.85;90.63;99240.44;5088392;28;20039;-60
2023/10/21 02:40:42;;;;;;;0.77;0.75;;;;;;;3.88;90.79;99240.44;5077485;28;20048;-62
2023/10/21 02:43:21;;;;;;;0.77;0.70;;;;;;;3.65;91.45;99198.38;5083107;28;20039;-62
2023/10/21 02:45:51;;;;;;;1.20;0.80;;;;;;;3.82;90.54;99232.72;5071906;28;20052;-63
2023/10/21 02:48:22;;;;;;;0.65;0.65;;;;;;;3.74;90.48;99236.19;5064779;28;20051;-62
2023/10/21 02:50:53;;;;;;;1.45;0.80;;;;;;;3.80;90.04;99237.03;5074159;28;20093;-62
2023/10/21 02:53:23;;;;;;;0.80;0.80;;;;;;;3.77;89.47;99236.19;5064240;28;20036;-62
2023/10/21 02:55:55;;;;;;;2.75;1.10;;;;;;;3.80;89.81;99241.34;5072785;28;20048;-63
2023/10/21 02:58:25;;;;;;;4.18;1.60;;;;;;;3.79;89.52;99235.31;5063982;28;21024;-62
2023/10/21 03:00:56;;;;;;;1.20;1.10;;;;;;;3.82;88.68;99245.66;5075442;28;20044;-62
2023/10/21 03:03:26;;;;;;;1.63;1.23;;;;;;;3.76;88.86;99245.66;5063187;28;20058;-62
2023/10/21 03:05:57;;;;;;;1.33;0.90;;;;;;;3.77;88.38;99247.41;5074117;28;20098;-61
2023/10/21 03:08:28;;;;;;;2.85;1.15;;;;;;;3.78;88.20;99243.94;5061824;28;20039;-62
2023/10/21 03:11:03;;;;;;;3.17;1.02;;;;;;;3.78;87.55;99243.94;5074379;28;20047;-62
2023/10/21 03:13:34;;;;;;;3.03;0.90;;;;;;;3.22;87.89;99164.97;5062638;28;20062;-62
2023/10/21 03:16:07;;;;;;;1.63;1.00;;;;;;;3.77;88.25;99242.22;5073791;28;20036;-62
2023/10/21 03:18:38;;;;;;;1.20;1.10;;;;;;;3.71;88.13;99226.75;5062682;28;20063;-62
2023/10/21 03:21:09;;;;;;;2.90;1.35;;;;;;;3.77;87.96;99249.97;5071723;28;20050;-63
2023/10/21 03:23:39;;;;;;;1.40;1.10;;;;;;;3.81;88.00;99243.06;5062308;28;20048;-62
2023/10/21 03:26:11;;;;;;;1.42;0.90;;;;;;;3.87;87.71;99249.06;5074517;28;20650;-63
2023/10/21 03:28:43;;;;;;;1.10;0.85;;;;;;;3.86;87.62;99246.47;5062218;28;20214;-62
2023/10/21 03:31:14;;;;;;;1.58;0.85;;;;;;;3.86;87.79;99242.16;5071254;28;20465;-64
2023/10/21 03:33:44;;;;;;;0.80;0.80;;;;;;;3.91;87.26;99238.69;5061742;28;20047;-63
2023/10/21 03:36:15;;;;;;;2.33;0.90;;;;;;;3.98;87.82;99245.56;5061089;28;20051;-63
2023/10/21 03:38:45;;;;;;;1.13;0.80;;;;;;;4.07;87.59;99237.75;5073664;28;20237;-63
2023/10/21 03:41:17;;;;;;;1.98;0.90;;;;;;;4.09;87.73;99233.41;5060641;28;20052;-63
2023/10/21 03:43:48;;;;;;;0.70;0.70;;;;;;;4.22;87.26;99227.31;5073715;28;20047;-62
2023/10/21 03:46:18;;;;;;;1.98;0.90;;;;;;;4.28;86.55;99227.25;5062281;28;20120;-63
2023/10/21 03:48:49;;;;;;;0.70;0.70;;;;;;;4.43;86.21;99226.25;5074271;28;20123;-62
2023/10/21 03:51:19;;;;;;;1.52;0.80;;;;;;;4.54;85.89;99223.56;5066217;28;20056;-63
2023/10/21 03:53:50;;;;;;;0.60;0.60;;;;;;;4.60;84.57;99230.44;5072051;28;20042;-62
2023/10/21 03:56:22;;;;;;;2.05;0.90;;;;;;;4.58;84.13;99212.34;5064393;28;20091;-61
2023/10/21 03:58:52;;;;;;;1.52;0.90;;;;;;;4.73;82.72;99232.91;5075751;28;20043;-61
2023/10/21 04:01:22;;;;;;;1.38;0.93;;;;;;;4.72;82.31;99236.38;5062258;28;20360;-60
2023/10/21 04:03:53;;;;;;;2.90;0.80;;;;;;;4.78;81.96;99239.78;5072674;28;20047;-62
2023/10/21 04:06:23;;;;;;;2.78;1.10;;;;;;;4.67;81.39;99240.72;5064834;28;20101;-63
2023/10/21 04:08:54;;;;;;;3.78;1.13;;;;;;;4.60;81.84;99249.41;5072161;28;20052;-63
2023/10/21 04:11:26;;;;;;;2.30;1.00;;;;;;;4.51;81.37;99247.75;5060807;28;20058;-62
2023/10/21 04:13:56;;;;;;;2.45;0.90;;;;;;;4.46;81.91;99253.84;5072884;28;20051;-62
2023/10/21 04:16:27;;;;;;;1.50;1.00;;;;;;;4.40;82.76;99256.47;5062182;28;20408;-62
2023/10/21 04:18:57;;;;;;;2.65;1.10;;;;;;;4.42;83.02;99259.88;5074227;28;20051;-61
2023/10/21 04:21:28;;;;;;;1.40;0.90;;;;;;;4.40;83.43;99264.25;5061280;28;20474;-62
2023/10/21 04:23:58;;;;;;;2.45;0.80;;;;;;;4.32;82.88;99272.91;5072692;28;20089;-62
2023/10/21 04:26:30;;;;;;;1.08;0.98;;;;;;;4.32;82.32;99272.06;5063033;28;20048;-62
2023/10/21 04:29:00;;;;;;;2.30;1.17;;;;;;;4.32;82.00;99270.31;5074652;28;20465;-61
2023/10/21 04:31:37;;;;;;;1.60;1.02;;;;;;;4.34;81.37;99275.47;5062521;28;20066;-61
2023/10/21 04:34:07;;;;;;;1.92;0.90;;;;;;;4.39;82.11;99278.03;5072259;28;20040;-62
2023/10/21 04:36:38;;;;;;;2.05;0.95;;;;;;;4.50;82.18;99282.25;5062279;28;20154;-62
2023/10/21 04:39:08;;;;;;;1.42;0.93;;;;;;;4.54;82.15;99277.91;5070572;28;20048;-62
2023/10/21 04:41:41;;;;;;;1.83;0.95;;;;;;;4.65;81.75;99281.28;5061806;28;20055;-62
2023/10/21 04:44:14;;;;;;;2.85;0.90;;;;;;;4.73;81.38;99274.31;5070537;28;20574;-62
2023/10/21 04:46:45;;;;;;;4.15;1.42;;;;;;;4.81;81.02;99275.97;5059260;28;20040;-62
2023/10/21 04:49:15;;;;;;;1.95;1.23;;;;;;;4.85;81.09;99267.31;5059588;28;20048;-62
2023/10/21 04:51:46;;;;;;;3.05;1.38;;;;;;;4.94;80.48;99272.38;5073347;28;20070;-63
2023/10/21 04:54:16;;;;;;;1.67;1.10;;;;;;;4.95;80.67;99271.53;5059206;28;20476;-61
2023/10/21 04:56:50;;;;;;;2.22;1.50;;;;;;;5.08;79.88;99274.84;5068685;28;20146;-63
2023/10/21 04:59:21;;;;;;;2.47;1.33;;;;;;;5.06;79.08;99267.09;5061600;28;20054;-64
2023/10/21 05:01:51;;;;;;;4.47;1.60;;;;;;;5.19;78.82;99268.72;5071450;28;20046;-61
2023/10/21 05:04:22;;;;;;;2.13;1.30;;;;;;;5.35;78.02;99273.72;5058048;28;20074;-63
2023/10/21 05:06:53;;;;;;;4.15;1.63;;;;;;;5.50;77.79;99273.53;5072001;28;20053;-64
2023/10/21 05:09:24;;;;;;;1.83;1.08;;;;;;;5.70;76.57;99269.84;5060272;28;20498;-65
2023/10/21 05:11:56;;;;;;;2.05;1.40;;;;;;;5.75;74.50;99265.47;5068835;28;20480;-66
2023/10/21 05:14:26;;;;;;;5.78;1.30;;;;;;;5.94;74.11;99274.75;5063411;28;20931;-64
2023/10/21 05:16:57;;;;;;;3.08;1.15;;;;;;;6.02;72.29;99272.91;5072685;28;20051;-65
2023/10/21 05:19:28;;;;;;;3.15;1.30;;;;;;;6.11;70.13;99265.88;5059368;28;20048;-64
2023/10/21 05:21:59;;;;;;;4.78;2.17;;;;;;;6.22;69.21;99269.19;5071941;28;20048;-62
2023/10/21 05:24:29;;;;;;;2.20;1.40;;;;;;;6.31;70.08;99261.25;5058543;28;20063;-64
2023/10/21 05:27:01;;;;;;;2.95;1.25;;;;;;;6.35;69.69;99260.31;5070616;28;20051;-63
2023/10/21 05:29:32;;;;;;;3.22;1.50;;;;;;;6.20;65.55;99265.75;5059380;28;20091;-64
2023/10/21 05:32:02;;;;;;;3.20;1.60;;;;;;;6.28;68.38;99263.88;5070566;28;20155;-63
2023/10/21 05:34:33;;;;;;;3.53;1.25;;;;;;;6.27;67.18;99262.19;5059797;28;20228;-63
2023/10/21 05:37:03;;;;;;;2.47;1.15;;;;;;;6.17;67.10;99255.44;5070823;28;20047;-64
2023/10/21 05:39:34;;;;;;;2.40;1.48;;;;;;;6.12;67.67;99270.19;5060031;28;20378;-65
2023/10/21 05:42:06;;;;;;;2.25;1.20;;;;;;;6.12;67.51;99267.59;5069177;28;20067;-63
2023/10/21 05:44:37;;;;;;;3.80;1.25;;;;;;;6.08;67.55;99266.78;5060231;28;20040;-63
2023/10/21 05:47:18;;;;;;;4.13;2.00;;;;;;;6.00;67.21;99269.47;5059891;28;20058;-63
2023/10/21 05:49:48;;;;;;;4.53;2.80;;;;;;;5.84;66.88;99268.81;5071275;28;20441;-63
2023/10/21 05:52:19;;;;;;;8.30;2.05;;;;;;;5.68;66.67;99271.59;5071617;28;20128;-63
2023/10/21 05:54:49;;;;;;;4.10;1.65;;;;;;;5.54;66.55;99259.69;5072381;28;20158;-63
2023/10/21 05:57:21;;;;;;;14.27;6.28;;;;;;;5.36;66.18;99271.09;5073702;28;20130;-61
2023/10/21 05:59:52;;;;;;;17.17;9.05;;;;;;;5.18;65.45;99277.31;5073791;28;20051;-63
2023/10/21 06:02:22;;;;;;;20.52;10.02;;;;;;;5.04;64.48;99275.75;5065891;28;20082;-62
2023/10/21 06:04:53;;;;;;;5.13;3.20;;;;;;;4.80;62.78;99284.63;5080628;28;20096;-64
2023/10/21 06:07:23;;;;;;;14.23;7.78;;;;;;;4.68;64.15;99278.66;5064937;28;20378;-62
2023/10/21 06:09:55;;;;;;;39.92;15.05;;;;;;;4.69;65.62;99285.56;5079192;28;20396;-63
2023/10/21 06:12:27;;;;;;;8.50;3.97;;;;;;;4.71;67.08;99291.56;5062992;28;20054;-62
2023/10/21 06:14:57;;;;;;;9.93;1.77;;;;;;;4.73;67.26;99294.16;5072123;28;20356;-63
2023/10/21 06:17:28;;;;;;;3.38;1.67;;;;;;;4.67;66.81;99295.06;5071666;28;20036;-63
2023/10/21 06:19:58;;;;;;;3.72;2.20;;;;;;;4.63;65.86;99295.94;5088107;28;20032;-63
2023/10/21 06:22:30;;;;;;;5.55;2.50;;;;;;;4.67;63.57;99295.06;5082212;28;20569;-63
2023/10/21 06:25:00;;;;;;;5.00;1.92;;;;;;;4.67;63.31;99295.06;5086222;28;20046;-62
2023/10/21 06:27:32;;;;;;;6.65;2.83;;;;;;;4.59;63.03;99290.81;5088174;28;20039;-62
2023/10/21 06:30:03;;;;;;;2.67;1.58;;;;;;;4.58;64.09;99289.97;5085323;28;20078;-63
2023/10/21 06:32:33;;;;;;;4.18;1.90;;;;;;;4.57;64.12;99288.25;5065857;28;20045;-62
2023/10/21 06:35:04;;;;;;;8.13;3.00;;;;;;;4.58;64.63;99287.38;5077939;28;20135;-63
2023/10/21 06:37:34;;;;;;;13.25;3.95;;;;;;;4.59;65.13;99286.47;5085156;28;20502;-63
2023/10/21 06:40:05;;;;;;;6.68;1.80;;;;;;;4.60;63.88;99297.72;5091456;28;20531;-63
2023/10/21 06:42:37;;;;;;;6.30;2.85;;;;;;;4.66;65.39;99298.50;5085496;28;20046;-61
2023/10/21 06:45:08;;;;;;;7.60;2.05;;;;;;;4.72;65.70;99295.88;5092280;28;20051;-63
2023/10/21 06:47:39;;;;;;;4.40;2.40;;;;;;;4.67;65.00;99305.41;5076128;28;20046;-65
2023/10/21 06:50:11;;;;;;;3.85;2.13;;;;;;;4.65;65.03;99306.31;5110494;28;20459;-62
2023/10/21 06:52:40;;;;;;;3.40;1.83;;;;;;;4.62;65.77;99314.94;5096402;28;20050;-63
2023/10/21 06:55:10;;;;;;;5.82;2.20;;;;;;;4.51;65.84;99314.16;5096032;28;20206;-63
2023/10/21 06:57:43;;;;;;;5.68;1.63;;;;;;;4.52;66.60;99310.72;5096139;28;20054;-63
2023/10/21 07:00:14;;;;;;;5.35;1.27;;;;;;;4.48;67.57;99315.03;5096580;28;20050;-63
2023/10/21 07:02:45;;;;;;;5.28;1.35;;;;;;;4.42;67.70;99324.56;5096910;28;20051;-63
2023/10/21 07:05:16;;;;;;;3.25;1.55;;;;;;;4.38;67.81;99333.22;5096311;28;20044;-63
2023/10/21 07:07:46;;;;;;;5.82;1.58;;;;;;;4.37;67.92;99341.81;5085301;28;20036;-63
2023/10/21 07:10:17;;;;;;;11.40;1.88;;;;;;;4.33;67.41;99339.25;5068705;28;20052;-63
2023/10/21 07:12:49;;;;;;;3.20;1.67;;;;;;;4.32;67.39;99339.28;5088785;28;20051;-62
2023/10/21 07:15:19;;;;;;;3.35;1.30;;;;;;;4.21;67.94;99338.47;5084260;28;20044;-62
2023/10/21 07:17:50;;;;;;;4.88;1.77;;;;;;;4.19;68.47;99348.81;5100054;28;20063;-62
2023/10/21 07:20:20;;;;;;;3.40;1.90;;;;;;;4.14;68.31;99355.75;5065369;28;20056;-62
2023/10/21 07:22:51;;;;;;;5.70;2.20;;;;;;;4.08;68.55;99356.63;5086234;28;20454;-62
2023/10/21 07:25:23;;;;;;;2.65;1.50;;;;;;;3.97;68.34;99352.38;5089368;28;20048;-62
2023/10/21 07:27:55;;;;;;;4.38;1.85;;;;;;;4.00;68.92;99363.59;5077455;28;20128;-63
2023/10/21 07:30:27;;;;;;;6.13;1.50;;;;;;;3.98;69.47;99369.63;5071288;28;20048;-62
2023/10/21 07:32:58;;;;;;;6.43;1.20;;;;;;;3.96;69.78;99366.19;5087826;28;20048;-61
2023/10/21 07:35:29;;;;;;;11.77;2.13;;;;;;;3.87;69.68;99369.66;5085537;28;20052;-62
2023/10/21 07:37:59;;;;;;;12.43;1.55;;;;;;;3.77;69.63;99374.00;5095537;28;20040;-62
2023/10/21 07:40:30;;;;;;;5.32;1.40;;;;;;;3.70;69.83;99367.13;5087541;28;20443;-62
2023/10/21 07:43:02;;;;;;;4.05;1.40;;;;;;;3.63;70.48;99375.75;5075609;28;20119;-62
2023/10/21 07:45:33;;;;;;;3.80;1.02;;;;;;;3.36;69.95;99343.97;5063534;28;20057;-62
2023/10/21 07:48:04;;;;;;;4.25;1.00;;;;;;;3.54;69.59;99378.34;5072493;28;20450;-64
2023/10/21 07:50:34;;;;;;;4.90;1.00;;;;;;;3.50;69.63;99376.66;5073257;28;20059;-64
2023/10/21 07:53:05;;;;;;;4.47;1.40;;;;;;;3.50;70.35;99387.00;5081082;28;20082;-63
2023/10/21 07:55:35;;;;;;;2.45;1.20;;;;;;;3.41;69.99;99388.72;5065171;28;20040;-64
2023/10/21 07:58:08;;;;;;;5.18;1.60;;;;;;;3.35;69.79;99399.06;5075543;28;20052;-63
2023/10/21 08:00:39;;;;;;;7.72;2.20;;;;;;;3.26;70.79;99393.03;5061478;28;20471;-63
2023/10/21 08:03:10;;;;;;;4.75;1.85;;;;;;;3.23;70.94;99394.75;5074497;28;20050;-62
2023/10/21 08:05:40;;;;;;;7.15;2.28;;;;;;;3.23;70.65;99399.06;5061832;28;20052;-63
2023/10/21 08:08:13;;;;;;;6.45;2.60;;;;;;;3.19;72.57;99418.00;5073293;28;20055;-63
2023/10/21 08:10:44;;;;;;;7.93;2.22;;;;;;;3.12;72.08;99418.84;5062181;28;20040;-64
2023/10/21 08:13:16;;;;;;;2.90;1.38;;;;;;;3.04;71.65;99424.00;5063641;28;20055;-63
2023/10/21 08:15:46;;;;;;;9.95;1.90;;;;;;;2.73;72.14;99382.69;5071154;28;20139;-63
2023/10/21 08:18:17;;;;;;;16.23;1.63;;;;;;;2.82;72.59;99433.44;5063339;28;20390;-63
2023/10/21 08:20:47;;;;;;;5.72;1.30;;;;;;;2.73;73.49;99438.59;5073008;28;20059;-62
2023/10/21 08:23:18;;;;;;;7.80;1.30;;;;;;;2.59;74.03;99434.25;5063843;28;20046;-64
2023/10/21 08:25:48;;;;;;;4.13;1.30;;;;;;;2.38;74.99;99441.94;5073298;28;20035;-63
2023/10/21 08:28:20;;;;;;;10.40;1.70;;;;;;;2.33;75.70;99453.97;5063041;28;20381;-63
2023/10/21 08:30:50;;;;;;;6.85;1.60;;;;;;;2.25;76.14;99450.50;5070141;28;20142;-63
2023/10/21 08:33:21;;;;;;;6.07;1.70;;;;;;;2.22;76.70;99455.59;5064012;28;20048;-63
2023/10/21 08:35:51;;;;;;;4.22;1.40;;;;;;;2.13;77.45;99452.16;5074064;28;20351;-63
2023/10/21 08:38:21;;;;;;;6.00;1.40;;;;;;;2.07;77.69;99462.44;5061601;28;20122;-63
2023/10/21 08:40:52;;;;;;;4.18;1.00;;;;;;;1.83;78.34;99452.00;5073375;28;20476;-63
2023/10/21 08:43:24;;;;;;;1.98;1.20;;;;;;;1.76;78.99;99455.38;5061292;28;20047;-63
2023/10/21 08:45:55;;;;;;;7.45;3.00;;;;;;;1.62;79.95;99469.03;5073353;28;20340;-62
2023/10/21 08:48:27;;;;;;;6.70;2.40;;;;;;;1.50;79.50;99474.94;5058847;28;20509;-63
2023/10/21 08:50:58;;;;;;;4.15;1.23;;;;;;;1.33;79.57;99455.94;5072794;28;20043;-66
2023/10/21 08:53:29;;;;;;;2.00;1.30;;;;;;;1.29;79.96;99465.34;5059803;28;20456;-62
2023/10/21 08:55:59;;;;;;;3.00;1.20;;;;;;;1.23;80.32;99465.28;5070842;28;20070;-62
2023/10/21 08:58:31;;;;;;;3.95;1.10;;;;;;;1.16;80.46;99468.66;5062225;28;20131;-61
2023/10/21 09:01:02;;;;;;;3.20;1.23;;;;;;;1.05;81.03;99475.44;5072716;28;20164;-63
2023/10/21 09:03:32;;;;;;;3.35;1.30;;;;;;;0.98;81.10;99473.66;5061378;28;20039;-62
2023/10/21 09:06:11;;;;;;;2.05;1.45;;;;;;;0.66;80.92;99422.75;5070727;28;20032;-62
2023/10/21 09:08:43;;;;;;;17.90;3.75;;;;;;;0.91;80.98;99492.44;5060961;28;20044;-62
2023/10/21 09:11:16;;;;;;;67.82;16.83;;;;;;;0.80;80.91;99485.47;5059117;28;20056;-62
2023/10/21 09:13:52;;;;;;;53.15;14.30;;;;;;;0.76;81.33;99488.84;5073483;28;20071;-62
2023/10/21 09:16:24;;;;;;;37.22;10.93;;;;;;;0.63;81.25;99489.56;5060556;28;20397;-64
2023/10/21 09:18:59;;;;;;;7.15;2.20;;;;;;;0.49;81.61;99489.41;5073994;28;20047;-62
2023/10/21 09:21:34;;;;;;;8.55;1.98;;;;;;;0.12;82.88;99449.53;5059852;28;20048;-63
2023/10/21 09:24:09;;;;;;;18.63;5.00;;;;;;;-0.06;83.73;99417.66;5072355;28;20134;-62
2023/10/21 09:26:41;;;;;;;11.45;4.35;;;;;;;0.52;84.06;99509.13;5061474;28;20039;-62
2023/10/21 09:29:14;;;;;;;14.20;5.32;;;;;;;0.66;83.72;99511.88;5070877;28;20059;-62
2023/10/21 09:31:49;;;;;;;9.10;2.85;;;;;;;0.63;83.17;99512.72;5061093;28;20482;-62
2023/10/21 09:34:27;;;;;;;8.32;2.97;;;;;;;0.57;83.77;99517.75;5059111;28;20059;-63
2023/10/21 09:36:58;;;;;;;10.77;4.03;;;;;;;0.30;84.36;99496.03;5073171;28;20647;-62
2023/10/21 09:39:32;;;;;;;6.72;2.63;;;;;;;0.42;85.40;99509.03;5060644;28;20039;-64
2023/10/21 09:42:04;;;;;;;11.60;5.28;;;;;;;0.49;85.56;99509.09;5071218;28;20378;-63
2023/10/21 09:44:38;;;;;;;60.00;18.33;;;;;;;0.47;85.84;99518.50;5061132;28;20039;-63
2023/10/21 09:47:08;;;;;;;57.40;17.30;;;;;;;0.43;86.41;99510.75;5070927;28;20043;-63
2023/10/21 09:49:39;;;;;;;36.78;11.32;;;;;;;0.47;86.61;99505.66;5059491;28;20052;-61
2023/10/21 09:52:14;;;;;;;46.53;14.18;;;;;;;0.49;86.96;99506.53;5071149;28;20131;-63
2023/10/21 09:54:47;;;;;;;65.30;22.17;;;;;;;0.49;87.26;99503.97;5061184;28;20450;-63
2023/10/21 09:57:19;;;;;;;16.50;6.60;;;;;;;0.53;87.13;99518.59;5059719;28;20047;-63
2023/10/21 09:59:53;;;;;;;13.52;5.78;;;;;;;0.58;86.63;99514.38;5071442;28;20043;-62
2023/10/21 10:02:24;;;;;;;59.75;24.83;;;;;;;0.41;86.61;99497.03;5063397;28;20039;-63
2023/10/21 10:04:55;;;;;;;47.58;21.38;;;;;;;0.47;86.68;99506.50;5077208;28;20469;-63
2023/10/21 10:07:26;;;;;;;35.97;18.95;;;;;;;0.52;87.23;99504.00;5065717;28;20051;-64
2023/10/21 10:10:12;;;;;;;35.42;17.60;;;;;;;0.56;87.81;99505.78;5076419;28;20046;-63
2023/10/21 10:12:47;;;;;;;14.27;7.82;;;;;;;0.56;87.73;99503.19;5066639;28;20176;-63
2023/10/21 10:15:33;;;;;;;3.22;2.10;;;;;;;0.47;87.91;99510.78;5063108;28;20071;-64
2023/10/21 10:18:05;;;;;;;4.47;1.95;;;;;;;0.35;88.54;99511.50;5074770;28;20091;-63
2023/10/21 10:20:36;;;;;;;5.95;1.80;;;;;;;0.26;89.09;99512.25;5064651;28;20380;-63
2023/10/21 10:23:09;;;;;;;2.00;1.60;;;;;;;0.21;89.51;99506.19;5075261;28;20059;-63
2023/10/21 10:25:40;;;;;;;2.58;1.50;;;;;;;0.12;89.78;99503.50;5066948;28;20364;-63
2023/10/21 10:28:17;;;;;;;4.80;1.50;;;;;;;0.07;90.27;99510.28;5075403;28;20446;-63
2023/10/21 10:30:51;;;;;;;3.05;1.50;;;;;;;0.10;90.93;99525.72;5063745;28;20054;-63
2023/10/21 10:33:24;;;;;;;4.22;2.00;;;;;;;0.10;91.04;99505.16;5060368;28;20044;-64
2023/10/21 10:35:56;;;;;;;2.92;1.70;;;;;;;-0.03;91.27;99489.59;5072913;28;20059;-63
2023/10/21 10:38:31;;;;;;;3.42;1.80;;;;;;;-0.03;91.50;99496.44;5065860;28;20430;-63
2023/10/21 10:41:06;;;;;;;6.03;1.80;;;;;;;-0.06;92.22;99489.56;5073584;28;20334;-63
2023/10/21 10:43:39;;;;;;;2.63;2.22;;;;;;;-0.07;92.43;99498.13;5065754;28;20130;-63
2023/10/21 10:46:12;;;;;;;4.68;1.60;;;;;;;-0.10;92.10;99498.06;5075642;28;20373;-63
2023/10/21 10:48:46;;;;;;;2.63;1.75;;;;;;;-0.09;92.19;99499.78;5061438;28;20102;-64
2023/10/21 10:51:17;;;;;;;4.35;2.10;;;;;;;0.06;92.86;99503.44;5062743;28;20343;-63
2023/10/21 10:53:52;;;;;;;4.93;2.20;;;;;;;0.16;93.37;99505.28;5071590;28;20054;-63
2023/10/21 10:56:23;;;;;;;9.85;2.25;;;;;;;0.29;92.81;99511.44;5060756;28;20062;-63
2023/10/21 10:58:53;;;;;;;10.10;2.72;;;;;;;0.10;92.05;99489.75;5076778;28;20371;-63
2023/10/21 11:01:26;;;;;;;4.95;3.25;;;;;;;0.19;92.13;99500.16;5064975;28;20102;-63
2023/10/21 11:03:58;;;;;;;8.32;2.38;;;;;;;0.27;91.56;99508.81;5076736;28;20114;-63
2023/10/21 11:06:32;;;;;;;9.27;2.72;;;;;;;0.27;91.16;99513.09;5066487;28;20412;-63
2023/10/21 11:09:04;;;;;;;6.30;2.00;;;;;;;0.21;91.51;99516.47;5048404;28;20901;-63
2023/10/21 11:11:47;;;;;;;3.53;1.67;;;;;;;0.12;92.20;99519.75;5005915;28;20809;-64
2023/10/21 11:14:38;;;;;;;4.78;2.00;;;;;;;0.01;92.82;99510.19;5021773;28;20052;-63
2023/10/21 11:17:10;;;;;;;13.38;1.83;;;;;;;-0.02;92.47;99522.16;5032793;28;20129;-64
2023/10/21 11:19:42;;;;;;;6.97;1.75;;;;;;;-0.07;92.49;99518.66;5024606;28;20405;-64
2023/10/21 11:22:21;;;;;;;5.78;1.58;;;;;;;-0.16;91.83;99513.38;5030179;28;20049;-64
2023/10/21 11:24:52;;;;;;;9.40;4.93;;;;;;;-0.44;91.15;99507.81;5038022;28;20124;-63
2023/10/21 11:27:23;;;;;;;8.27;4.80;;;;;;;-0.53;92.21;99512.81;5025075;28;20040;-63
2023/10/21 11:29:54;;;;;;;12.00;5.90;;;;;;;-0.51;92.39;99516.25;5035240;28;20056;-63
2023/10/21 11:32:32;;;;;;;6.35;2.95;;;;;;;-0.66;92.22;99505.75;5023069;28;20068;-63
2023/10/21 11:35:04;;;;;;;5.97;3.10;;;;;;;-0.72;92.07;99510.78;5035792;28;20136;-63
2023/10/21 11:37:34;;;;;;;8.13;3.47;;;;;;;-0.66;92.25;99516.00;5045056;28;20059;-63
2023/10/21 11:40:06;;;;;;;31.40;7.97;;;;;;;-0.69;92.28;99526.22;5076735;28;20044;-63
2023/10/21 11:42:36;;;;;;;13.45;4.57;;;;;;;-0.76;91.50;99524.41;5060640;28;20128;-63
2023/10/21 11:45:09;;;;;;;13.38;5.13;;;;;;;-0.72;90.84;99521.91;5044365;28;20041;-63
2023/10/21 11:47:41;;;;;;;22.75;7.07;;;;;;;-0.66;90.04;99526.28;5025200;28;20135;-63
2023/10/21 11:50:13;;;;;;;21.80;6.47;;;;;;;-0.50;89.92;99528.28;5032957;28;20071;-63
2023/10/21 11:52:45;;;;;;;23.40;7.20;;;;;;;-0.46;89.98;99514.63;5035382;28;21240;-62
2023/10/21 11:55:37;;;;;;;22.00;6.43;;;;;;;-0.43;90.39;99530.06;5024622;28;21015;-63
2023/10/21 12:04:28;;;;;;;11.88;5.15;;;;;;;-0.55;90.61;99514.50;4985533;28;20052;-62
2023/10/21 12:21:42;;;;;;;9.15;3.50;;;;;;;-0.65;92.61;99528.00;5032089;28;20088;-62